Time;durP1;ratioP1;P1;durP2;ratioP2;P2;SDS_P1;SDS_P2;PMS_P1;PMS_P2;Temp;Humidity;BMP_temperature;BMP_pressure;BME280_temperature;BME280_humidity;BME280_pressure;Samples;Min_cycle;Max_cycle;Signal;HPM_P1;HPM_P2
2023/12/24 00:00:20;;;;;;;1.80;1.60;;;10.30;1.00;;;;;;5034414;28;20328;-79
2023/12/24 00:02:45;;;;;;;1.30;1.20;;;10.30;1.00;;;;;;5034575;28;20618;-80
2023/12/24 00:05:11;;;;;;;2.43;1.90;;;10.30;1.00;;;;;;5034784;28;20654;-81
2023/12/24 00:07:36;;;;;;;2.40;1.73;;;10.20;1.00;;;;;;5034426;28;20232;-79
2023/12/24 00:10:02;;;;;;;2.23;1.10;;;10.20;1.00;;;;;;5017030;28;20190;-79
2023/12/24 00:12:27;;;;;;;1.63;1.20;;;10.20;1.00;;;;;;5034501;28;20779;-79
2023/12/24 00:14:54;;;;;;;1.53;1.33;;;10.20;1.00;;;;;;5033748;28;20197;-80
2023/12/24 00:17:19;;;;;;;1.73;1.50;;;10.20;1.00;;;;;;5034725;28;20207;-81
2023/12/24 00:19:45;;;;;;;1.40;1.20;;;10.20;1.00;;;;;;5034277;28;20464;-79
2023/12/24 00:22:11;;;;;;;2.07;1.87;;;10.20;1.00;;;;;;5033704;28;20196;-79
2023/12/24 00:24:37;;;;;;;1.30;1.17;;;10.20;1.00;;;;;;5034563;28;22410;-81
2023/12/24 00:27:02;;;;;;;1.77;1.37;;;10.20;1.00;;;;;;5016816;28;20476;-78
2023/12/24 00:29:28;;;;;;;1.60;1.27;;;10.20;1.00;;;;;;5033590;28;20224;-81
2023/12/24 00:31:54;;;;;;;2.10;1.40;;;10.20;1.00;;;;;;5034618;28;20286;-78
2023/12/24 00:34:19;;;;;;;2.33;1.40;;;10.30;1.00;;;;;;5034495;28;20660;-77
2023/12/24 00:36:45;;;;;;;1.80;1.20;;;10.30;1.00;;;;;;5030245;28;20182;-79
2023/12/24 00:39:10;;;;;;;2.23;1.63;;;10.30;1.00;;;;;;5030352;28;20209;-81
2023/12/24 00:41:39;;;;;;;2.00;1.50;;;10.30;1.00;;;;;;5034640;28;20695;-80
2023/12/24 00:44:05;;;;;;;1.97;1.43;;;10.40;1.00;;;;;;5034516;28;20185;-81
2023/12/24 00:46:31;;;;;;;2.87;1.70;;;;;;;;;;5008091;28;20432;-80
2023/12/24 00:48:56;;;;;;;1.90;1.70;;;10.40;1.00;;;;;;5027377;28;20432;-79
2023/12/24 00:51:22;;;;;;;1.40;1.30;;;10.40;1.00;;;;;;5034257;28;20641;-79
2023/12/24 00:53:47;;;;;;;5.60;1.60;;;10.40;1.00;;;;;;5030491;28;20201;-79
2023/12/24 00:56:13;;;;;;;3.83;1.87;;;10.40;1.00;;;;;;5013565;28;20182;-81
2023/12/24 00:58:38;;;;;;;2.20;1.37;;;10.40;1.00;;;;;;5023903;28;20213;-80
2023/12/24 01:01:04;;;;;;;1.83;1.40;;;10.40;1.00;;;;;;5031001;28;20218;-79
2023/12/24 01:03:29;;;;;;;1.47;1.37;;;10.40;1.00;;;;;;5030582;28;20277;-79
2023/12/24 01:05:55;;;;;;;1.50;1.10;;;10.40;1.00;;;;;;5030455;28;20228;-79
2023/12/24 01:08:20;;;;;;;2.40;1.30;;;10.40;1.00;;;;;;5031341;28;20205;-79
2023/12/24 01:10:48;;;;;;;1.93;1.50;;;10.30;1.00;;;;;;5027284;28;20181;-79
2023/12/24 01:13:18;;;;;;;1.50;1.40;;;10.30;1.00;;;;;;5031115;28;20174;-79
2023/12/24 01:15:47;;;;;;;1.50;1.23;;;10.40;1.00;;;;;;5024248;28;20470;-81
2023/12/24 01:18:14;;;;;;;1.53;1.27;;;10.30;1.00;;;;;;5025711;28;20951;-80
2023/12/24 01:20:40;;;;;;;1.80;1.20;;;10.30;1.00;;;;;;5024995;28;20830;-79
2023/12/24 01:23:05;;;;;;;1.97;1.47;;;10.30;1.00;;;;;;5025078;28;20460;-80
2023/12/24 01:25:31;;;;;;;1.37;1.27;;;10.30;1.00;;;;;;5027883;28;20233;-80
2023/12/24 01:27:56;;;;;;;1.60;1.30;;;10.30;1.00;;;;;;5031553;28;20201;-81
2023/12/24 01:30:22;;;;;;;4.57;1.50;;;10.30;1.00;;;;;;5030784;28;20178;-80
2023/12/24 01:32:47;;;;;;;1.67;1.30;;;10.30;1.00;;;;;;5028866;28;20219;-79
2023/12/24 01:35:13;;;;;;;1.80;1.40;;;10.30;1.00;;;;;;5030573;28;20671;-79
2023/12/24 01:37:38;;;;;;;1.93;1.40;;;10.30;1.00;;;;;;5027644;28;20206;-80
2023/12/24 01:40:04;;;;;;;1.53;1.23;;;10.30;1.00;;;;;;5030497;28;20703;-79
2023/12/24 01:42:30;;;;;;;1.60;1.50;;;10.30;1.00;;;;;;5021936;28;20214;-79
2023/12/24 01:44:56;;;;;;;3.70;1.40;;;10.30;1.00;;;;;;5030159;28;20455;-80
2023/12/24 01:47:22;;;;;;;2.73;1.37;;;10.30;1.00;;;;;;5023992;28;20902;-80
2023/12/24 01:49:49;;;;;;;2.60;1.50;;;10.30;1.00;;;;;;5010128;28;20719;-83
2023/12/24 01:52:15;;;;;;;2.87;1.50;;;10.30;1.00;;;;;;5029715;28;20441;-79
2023/12/24 01:54:41;;;;;;;1.73;1.40;;;10.30;1.00;;;;;;5026823;28;20505;-80
2023/12/24 01:57:07;;;;;;;1.53;1.40;;;10.40;1.00;;;;;;5029978;28;20448;-79
2023/12/24 01:59:33;;;;;;;1.70;1.37;;;10.40;1.00;;;;;;5029523;28;20221;-81
2023/12/24 02:01:59;;;;;;;2.30;1.40;;;10.40;1.00;;;;;;5030500;28;20174;-80
2023/12/24 02:04:25;;;;;;;2.20;1.50;;;10.40;1.00;;;;;;5025332;28;20428;-80
2023/12/24 02:06:51;;;;;;;3.53;1.30;;;10.40;1.00;;;;;;5026913;28;20215;-81
2023/12/24 02:09:16;;;;;;;2.03;1.40;;;10.40;1.00;;;;;;5028978;28;20178;-79
2023/12/24 02:11:42;;;;;;;3.60;1.20;;;10.40;1.00;;;;;;5029457;28;20216;-81
2023/12/24 02:14:07;;;;;;;1.87;1.20;;;10.40;1.00;;;;;;5024992;28;20184;-80
2023/12/24 02:16:38;;;;;;;1.50;1.40;;;10.30;1.00;;;;;;5002593;28;20236;-80
2023/12/24 02:19:04;;;;;;;1.50;1.40;;;10.30;1.00;;;;;;5030585;28;20213;-80
2023/12/24 02:21:30;;;;;;;2.13;1.40;;;10.30;1.00;;;;;;5026201;28;20420;-80
2023/12/24 02:23:55;;;;;;;1.70;1.20;;;10.40;1.00;;;;;;5029707;28;20421;-80
2023/12/24 02:26:56;;;;;;;1.80;1.30;;;10.40;1.00;;;;;;5026626;28;20695;-81
2023/12/24 02:29:34;;;;;;;2.37;1.30;;;10.40;1.00;;;;;;5004287;28;20189;-79
2023/12/24 02:32:10;;;;;;;2.13;1.30;;;10.40;1.00;;;;;;5019066;28;20749;-79
2023/12/24 02:34:37;;;;;;;2.50;1.30;;;10.40;1.00;;;;;;5026887;28;20459;-80
2023/12/24 02:37:05;;;;;;;2.57;1.20;;;10.30;1.00;;;;;;5029443;28;20444;-79
2023/12/24 02:39:30;;;;;;;1.80;1.20;;;10.30;1.00;;;;;;5026085;28;20509;-76
2023/12/24 02:41:56;;;;;;;1.40;1.10;;;10.40;1.00;;;;;;5023515;28;20818;-80
2023/12/24 02:44:21;;;;;;;1.40;1.27;;;10.30;1.00;;;;;;5028925;28;20256;-79
2023/12/24 02:46:47;;;;;;;1.57;1.00;;;10.30;1.00;;;;;;5009801;28;20596;-79
2023/12/24 02:49:14;;;;;;;1.80;1.13;;;10.30;1.00;;;;;;5010253;28;20657;-80
2023/12/24 02:51:40;;;;;;;2.07;1.00;;;10.30;1.00;;;;;;5028977;28;20182;-80
2023/12/24 02:54:05;;;;;;;1.50;1.20;;;10.30;1.00;;;;;;5028888;28;20822;-80
2023/12/24 02:56:36;;;;;;;1.20;1.10;;;10.30;1.00;;;;;;5028489;28;20188;-79
2023/12/24 02:59:03;;;;;;;1.60;1.30;;;10.40;1.00;;;;;;5023740;28;20209;-80
2023/12/24 03:01:28;;;;;;;1.30;1.10;;;10.30;1.00;;;;;;5029410;28;20455;-79
2023/12/24 03:03:54;;;;;;;1.93;1.20;;;10.40;1.00;;;;;;5028593;28;20456;-80
2023/12/24 03:06:19;;;;;;;1.40;1.20;;;10.40;1.00;;;;;;5027758;28;20241;-81
2023/12/24 03:08:44;;;;;;;1.57;1.30;;;10.40;1.00;;;;;;5028951;28;20213;-80
2023/12/24 03:11:10;;;;;;;2.03;1.30;;;10.30;1.00;;;;;;5026196;28;20186;-79
2023/12/24 03:13:35;;;;;;;2.03;1.43;;;10.40;1.00;;;;;;5028492;28;20189;-80
2023/12/24 03:16:01;;;;;;;1.70;1.20;;;10.40;1.00;;;;;;5021129;28;20193;-79
2023/12/24 03:18:26;;;;;;;3.30;1.47;;;10.40;1.00;;;;;;5028210;28;20259;-76
2023/12/24 03:20:52;;;;;;;2.00;1.33;;;10.40;1.00;;;;;;5009340;28;20663;-79
2023/12/24 03:23:18;;;;;;;1.70;1.23;;;10.40;1.00;;;;;;5027030;28;20173;-79
2023/12/24 03:25:43;;;;;;;2.50;1.30;;;10.40;1.00;;;;;;5028603;28;20189;-78
2023/12/24 03:28:09;;;;;;;2.17;1.27;;;10.40;1.00;;;;;;5027948;28;20210;-79
2023/12/24 03:30:34;;;;;;;1.50;1.30;;;10.40;1.00;;;;;;5028335;28;20194;-80
2023/12/24 03:33:00;;;;;;;2.40;1.37;;;10.30;1.00;;;;;;5022627;28;20656;-82
2023/12/24 03:35:25;;;;;;;3.00;1.10;;;10.30;1.00;;;;;;5028346;28;20193;-79
2023/12/24 03:37:51;;;;;;;1.80;1.20;;;10.30;1.00;;;;;;5023064;28;20206;-79
2023/12/24 03:40:16;;;;;;;1.60;1.20;;;10.30;1.00;;;;;;5027107;28;20212;-79
2023/12/24 03:42:42;;;;;;;1.70;1.10;;;10.30;1.00;;;;;;5028348;28;20577;-80
2023/12/24 03:45:07;;;;;;;1.10;0.90;;;10.30;1.00;;;;;;5027912;28;20210;-80
2023/12/24 03:47:34;;;;;;;1.30;1.10;;;10.30;1.00;;;;;;5027290;28;20201;-80
2023/12/24 03:49:59;;;;;;;1.77;1.10;;;10.30;1.00;;;;;;5026770;28;20182;-79
2023/12/24 03:52:25;;;;;;;1.63;1.30;;;10.30;1.00;;;;;;5028699;28;20439;-82
2023/12/24 03:54:50;;;;;;;1.40;1.23;;;10.30;1.00;;;;;;5027806;28;20741;-79
2023/12/24 03:57:16;;;;;;;1.60;1.30;;;10.30;1.00;;;;;;5027343;28;20213;-79
2023/12/24 03:59:41;;;;;;;1.30;1.20;;;10.30;1.00;;;;;;5021683;28;20218;-79
2023/12/24 04:02:07;;;;;;;1.80;1.10;;;10.30;1.00;;;;;;5028418;28;20644;-79
2023/12/24 04:04:32;;;;;;;2.40;1.37;;;10.30;1.00;;;;;;5028437;28;20321;-82
2023/12/24 04:07:00;;;;;;;1.53;1.40;;;10.30;1.00;;;;;;5021057;28;20576;-81
2023/12/24 04:09:26;;;;;;;1.60;1.13;;;10.30;1.00;;;;;;5028653;28;20672;-80
2023/12/24 04:11:51;;;;;;;1.30;1.17;;;10.30;1.00;;;;;;5022947;28;20428;-80
2023/12/24 04:14:17;;;;;;;1.60;1.30;;;10.30;1.00;;;;;;5028409;28;20420;-79
2023/12/24 04:16:42;;;;;;;2.27;1.40;;;10.40;1.00;;;;;;5027365;28;20794;-79
2023/12/24 04:19:08;;;;;;;1.30;1.20;;;10.40;1.00;;;;;;5028267;28;20212;-82
2023/12/24 04:21:33;;;;;;;1.50;1.40;;;10.40;1.00;;;;;;5027173;28;20190;-81
2023/12/24 04:23:59;;;;;;;1.73;1.40;;;10.40;1.00;;;;;;5025288;28;20620;-80
2023/12/24 04:26:25;;;;;;;1.40;1.20;;;10.40;1.00;;;;;;5009895;28;20188;-80
2023/12/24 04:28:51;;;;;;;1.40;1.20;;;10.40;1.00;;;;;;5030233;28;20954;-81
2023/12/24 04:31:17;;;;;;;2.00;1.40;;;10.40;1.00;;;;;;5030603;28;20216;-80
2023/12/24 04:33:42;;;;;;;2.93;1.33;;;10.40;1.00;;;;;;5025426;28;20436;-79
2023/12/24 04:36:08;;;;;;;1.30;1.20;;;10.40;1.00;;;;;;5026038;28;20201;-79
2023/12/24 04:38:34;;;;;;;1.50;1.40;;;10.40;1.00;;;;;;5031074;28;20556;-80
2023/12/24 04:40:59;;;;;;;2.53;1.53;;;10.40;1.00;;;;;;5031085;28;20193;-81
2023/12/24 04:43:25;;;;;;;1.80;1.50;;;10.40;1.00;;;;;;5031660;28;20190;-79
2023/12/24 04:45:50;;;;;;;1.97;1.50;;;10.40;1.00;;;;;;5031084;28;20288;-80
2023/12/24 04:48:16;;;;;;;2.50;1.30;;;10.40;1.00;;;;;;5030110;28;20296;-80
2023/12/24 04:50:42;;;;;;;1.60;1.50;;;10.40;1.00;;;;;;5031754;28;20196;-80
2023/12/24 04:53:07;;;;;;;1.70;1.40;;;10.40;1.00;;;;;;5031310;28;20178;-79
2023/12/24 04:55:35;;;;;;;1.50;1.27;;;10.40;1.00;;;;;;5030260;28;20193;-79
2023/12/24 04:58:00;;;;;;;1.43;1.20;;;10.30;1.00;;;;;;5030166;28;20206;-80
2023/12/24 05:00:26;;;;;;;2.47;1.27;;;10.40;1.00;;;;;;5027956;28;21000;-79
2023/12/24 05:02:52;;;;;;;2.03;1.30;;;10.30;1.00;;;;;;5030753;28;20178;-79
2023/12/24 05:05:17;;;;;;;1.60;1.40;;;10.30;1.00;;;;;;5031173;28;20211;-79
2023/12/24 05:07:43;;;;;;;2.67;1.40;;;10.40;1.00;;;;;;5030340;28;20216;-80
2023/12/24 05:10:09;;;;;;;3.17;1.53;;;10.30;1.00;;;;;;5028887;28;20195;-81
2023/12/24 05:12:34;;;;;;;1.30;1.10;;;10.30;1.00;;;;;;5028812;28;20248;-80
2023/12/24 05:15:01;;;;;;;4.63;1.20;;;10.30;1.00;;;;;;5029461;28;20182;-79
2023/12/24 05:17:26;;;;;;;1.27;1.17;;;10.30;1.00;;;;;;5027925;28;20212;-80
2023/12/24 05:19:52;;;;;;;5.30;1.20;;;10.30;1.00;;;;;;5021571;28;20460;-79
2023/12/24 05:22:17;;;;;;;1.80;1.10;;;10.30;1.00;;;;;;5031088;28;20228;-80
2023/12/24 05:24:43;;;;;;;1.40;1.07;;;10.30;1.00;;;;;;5025936;28;20612;-80
2023/12/24 05:27:08;;;;;;;1.70;1.37;;;10.30;1.00;;;;;;5012020;28;20263;-79
2023/12/24 05:29:34;;;;;;;2.33;1.30;;;10.30;1.00;;;;;;5030722;28;20188;-79
2023/12/24 05:31:59;;;;;;;1.30;1.07;;;10.30;1.00;;;;;;5012158;28;20186;-81
2023/12/24 05:34:25;;;;;;;1.40;1.20;;;10.30;1.00;;;;;;5030285;28;20303;-80
2023/12/24 05:36:50;;;;;;;2.03;1.30;;;10.30;1.00;;;;;;5012364;28;20213;-79
2023/12/24 05:39:16;;;;;;;1.30;1.03;;;10.40;1.00;;;;;;5029646;28;20283;-80
2023/12/24 05:41:45;;;;;;;7.03;1.17;;;10.30;1.00;;;;;;5030300;28;20675;-79
2023/12/24 05:44:10;;;;;;;1.23;1.13;;;10.40;1.00;;;;;;5029644;28;20262;-79
2023/12/24 05:46:36;;;;;;;1.97;0.90;;;10.30;1.00;;;;;;5027813;28;20872;-81
2023/12/24 05:49:01;;;;;;;2.77;1.10;;;10.30;1.00;;;;;;5012526;28;20201;-79
2023/12/24 05:51:27;;;;;;;1.50;1.30;;;10.20;1.00;;;;;;5029859;28;20217;-80
2023/12/24 05:53:52;;;;;;;5.47;1.07;;;10.00;1.00;;;;;;5029433;28;20201;-79
2023/12/24 05:56:18;;;;;;;1.10;1.00;;;9.80;1.00;;;;;;5030162;28;20186;-79
2023/12/24 05:58:43;;;;;;;1.30;1.00;;;9.80;1.00;;;;;;5029797;28;20296;-80
2023/12/24 06:01:09;;;;;;;1.20;1.00;;;9.80;1.00;;;;;;5028455;28;20201;-79
2023/12/24 06:03:35;;;;;;;1.50;0.90;;;9.60;1.00;;;;;;5028733;28;20278;-82
2023/12/24 06:06:00;;;;;;;5.00;1.83;;;9.50;1.00;;;;;;5029613;28;20185;-81
2023/12/24 06:08:25;;;;;;;1.43;1.10;;;9.40;1.00;;;;;;5029995;28;20216;-79
2023/12/24 06:10:51;;;;;;;1.83;1.13;;;9.40;1.00;;;;;;5028792;28;20601;-80
2023/12/24 06:13:16;;;;;;;1.50;1.07;;;9.40;1.00;;;;;;5022850;28;20213;-79
2023/12/24 06:15:42;;;;;;;1.77;1.10;;;9.40;1.00;;;;;;5029322;28;20709;-79
2023/12/24 06:18:09;;;;;;;1.50;1.20;;;9.40;1.00;;;;;;5029527;28;20210;-80
2023/12/24 06:20:37;;;;;;;1.10;0.93;;;9.40;1.00;;;;;;5028553;28;20233;-77
2023/12/24 06:23:03;;;;;;;4.80;1.73;;;9.40;1.00;;;;;;5027416;28;20460;-79
2023/12/24 06:25:28;;;;;;;1.97;1.27;;;9.40;1.00;;;;;;5029523;28;20456;-79
2023/12/24 06:27:54;;;;;;;1.40;1.20;;;9.60;1.00;;;;;;5023578;28;20804;-82
2023/12/24 06:30:20;;;;;;;1.60;1.13;;;9.70;1.00;;;;;;5011659;28;20182;-80
2023/12/24 06:32:46;;;;;;;3.20;1.40;;;9.70;1.00;;;;;;5029593;28;20215;-79
2023/12/24 06:35:12;;;;;;;1.63;1.30;;;9.80;1.00;;;;;;5023557;28;20421;-80
2023/12/24 06:37:38;;;;;;;1.40;1.20;;;9.90;1.00;;;;;;5027330;28;20476;-80
2023/12/24 06:40:04;;;;;;;1.30;1.20;;;9.90;1.00;;;;;;5029521;28;20527;-80
2023/12/24 06:42:30;;;;;;;1.20;1.10;;;10.00;1.00;;;;;;5027081;28;20217;-79
2023/12/24 06:44:55;;;;;;;1.87;1.10;;;10.00;1.00;;;;;;5026484;28;20850;-79
2023/12/24 06:47:21;;;;;;;1.53;1.30;;;10.10;1.00;;;;;;5029385;28;20204;-81
2023/12/24 06:49:46;;;;;;;1.43;1.20;;;10.20;1.00;;;;;;5029066;28;20190;-79
2023/12/24 06:52:12;;;;;;;2.20;1.23;;;10.20;1.00;;;;;;5024153;28;20186;-80
2023/12/24 06:54:37;;;;;;;2.90;1.30;;;10.30;1.00;;;;;;5024667;28;20264;-79
2023/12/24 06:57:04;;;;;;;2.03;1.40;;;10.30;1.00;;;;;;5028004;28;20218;-81
2023/12/24 06:59:30;;;;;;;3.63;1.40;;;10.20;1.00;;;;;;5022589;28;20659;-79
2023/12/24 07:01:55;;;;;;;1.40;1.30;;;10.20;1.00;;;;;;5022442;28;20457;-76
2023/12/24 07:04:21;;;;;;;1.50;1.30;;;10.20;1.00;;;;;;5027244;28;20220;-82
2023/12/24 07:06:47;;;;;;;2.10;1.60;;;10.20;1.00;;;;;;5027747;28;20212;-78
2023/12/24 07:09:12;;;;;;;1.50;1.40;;;10.20;1.00;;;;;;5027201;28;20218;-79
2023/12/24 07:11:38;;;;;;;1.97;1.20;;;10.30;1.00;;;;;;5026955;28;20178;-80
2023/12/24 07:14:03;;;;;;;1.40;1.30;;;10.30;1.00;;;;;;5028600;28;20273;-80
2023/12/24 07:16:29;;;;;;;1.30;1.10;;;10.10;1.00;;;;;;5027977;28;20809;-80
2023/12/24 07:18:55;;;;;;;1.40;1.00;;;9.90;1.00;;;;;;5028775;28;20587;-80
2023/12/24 07:21:20;;;;;;;6.40;1.20;;;9.80;1.00;;;;;;5028515;28;20178;-80
2023/12/24 07:23:46;;;;;;;1.10;1.00;;;9.70;1.00;;;;;;5028849;28;20208;-79
2023/12/24 07:26:12;;;;;;;2.63;1.20;;;9.70;1.00;;;;;;5028251;28;20264;-79
2023/12/24 07:28:37;;;;;;;1.97;1.00;;;9.60;1.00;;;;;;5029506;28;20868;-79
2023/12/24 07:31:03;;;;;;;1.40;1.03;;;9.70;1.00;;;;;;5027355;28;20192;-79
2023/12/24 07:33:28;;;;;;;1.33;0.90;;;9.70;1.00;;;;;;5025585;28;20185;-79
2023/12/24 07:35:54;;;;;;;1.37;1.00;;;9.80;1.00;;;;;;5024819;28;20551;-80
2023/12/24 07:38:19;;;;;;;1.40;1.10;;;10.00;1.00;;;;;;5016821;28;20205;-80
2023/12/24 07:40:45;;;;;;;1.60;1.00;;;10.10;1.00;;;;;;5009517;28;20299;-82
2023/12/24 07:43:10;;;;;;;1.53;1.10;;;10.20;1.00;;;;;;5025013;28;20178;-79
2023/12/24 07:45:36;;;;;;;4.50;1.00;;;10.30;1.00;;;;;;5026994;28;20208;-79
2023/12/24 07:48:02;;;;;;;1.23;1.00;;;10.30;1.00;;;;;;5027827;28;20201;-79
2023/12/24 07:50:27;;;;;;;1.10;0.90;;;10.40;1.00;;;;;;5028620;28;20197;-80
2023/12/24 07:52:52;;;;;;;1.20;0.80;;;10.40;1.00;;;;;;5025938;28;20536;-79
2023/12/24 07:55:18;;;;;;;1.70;1.00;;;10.40;1.00;;;;;;5020496;28;20205;-79
2023/12/24 07:57:43;;;;;;;1.37;0.90;;;10.40;1.00;;;;;;5019432;28;20260;-79
2023/12/24 08:00:10;;;;;;;1.00;0.70;;;10.30;1.00;;;;;;5025974;28;20224;-79
2023/12/24 08:02:35;;;;;;;1.00;0.80;;;10.30;1.00;;;;;;5005683;28;20182;-80
2023/12/24 08:05:01;;;;;;;1.97;1.10;;;10.40;1.00;;;;;;5030424;28;20416;-79
2023/12/24 08:07:26;;;;;;;7.53;2.40;;;10.40;1.00;;;;;;5029962;28;20676;-81
2023/12/24 08:09:52;;;;;;;1.37;1.17;;;10.40;1.00;;;;;;5032354;28;20201;-78
2023/12/24 08:12:17;;;;;;;4.20;1.20;;;10.20;1.00;;;;;;5031285;28;20190;-79
2023/12/24 08:14:43;;;;;;;3.40;1.30;;;10.20;1.00;;;;;;5031548;28;20224;-81
2023/12/24 08:17:08;;;;;;;2.27;0.90;;;9.80;1.00;;;;;;5012834;28;20205;-79
2023/12/24 08:19:34;;;;;;;1.33;1.00;;;9.80;1.00;;;;;;5031764;28;20626;-81
2023/12/24 08:21:59;;;;;;;1.10;0.80;;;9.60;1.00;;;;;;5025502;28;20877;-78
2023/12/24 08:24:25;;;;;;;1.10;0.80;;;9.60;1.00;;;;;;5031354;28;20190;-78
2023/12/24 08:26:51;;;;;;;1.73;0.90;;;9.50;1.00;;;;;;5031193;28;20231;-79
2023/12/24 08:29:17;;;;;;;2.43;1.10;;;9.50;1.00;;;;;;5031802;28;20190;-80
2023/12/24 08:31:42;;;;;;;3.00;1.17;;;9.50;1.00;;;;;;5031521;28;20425;-79
2023/12/24 08:34:07;;;;;;;1.30;1.10;;;9.40;1.00;;;;;;5031177;28;20186;-77
2023/12/24 08:36:33;;;;;;;2.10;0.90;;;9.40;1.00;;;;;;5013368;28;20184;-77
2023/12/24 08:38:59;;;;;;;1.07;0.90;;;9.40;1.00;;;;;;5031253;28;20205;-78
2023/12/24 08:41:24;;;;;;;1.10;0.90;;;9.20;1.00;;;;;;5028362;28;20186;-78
2023/12/24 08:43:50;;;;;;;1.40;1.10;;;9.30;1.00;;;;;;5031464;28;20558;-79
2023/12/24 08:46:16;;;;;;;1.83;1.00;;;9.30;1.00;;;;;;5029409;28;20567;-78
2023/12/24 08:48:42;;;;;;;3.00;1.00;;;9.20;1.00;;;;;;5031338;28;20680;-79
2023/12/24 08:51:07;;;;;;;1.20;0.90;;;9.30;1.00;;;;;;5028158;28;20538;-78
2023/12/24 08:53:33;;;;;;;1.20;1.00;;;9.30;1.00;;;;;;5031401;28;20174;-79
2023/12/24 08:55:58;;;;;;;1.33;0.90;;;9.30;1.00;;;;;;5008043;28;20552;-78
2023/12/24 08:58:24;;;;;;;2.83;0.97;;;9.30;1.00;;;;;;5031768;28;20206;-78
2023/12/24 09:00:49;;;;;;;1.20;1.00;;;9.50;1.00;;;;;;5028579;28;20280;-77
2023/12/24 09:03:17;;;;;;;1.87;1.00;;;9.60;1.00;;;;;;5025743;28;20196;-77
2023/12/24 09:05:42;;;;;;;2.40;0.90;;;9.70;1.00;;;;;;5030196;28;20186;-75
2023/12/24 09:08:08;;;;;;;1.70;1.00;;;9.80;1.00;;;;;;5031920;28;20502;-73
2023/12/24 09:10:33;;;;;;;1.40;0.80;;;9.90;1.00;;;;;;5029937;28;20181;-77
2023/12/24 09:12:59;;;;;;;1.63;0.97;;;9.70;1.00;;;;;;5028653;28;20189;-76
2023/12/24 09:15:24;;;;;;;1.23;0.90;;;9.50;1.00;;;;;;5000260;28;20225;-75
2023/12/24 09:17:50;;;;;;;2.43;1.20;;;9.40;1.00;;;;;;5026395;28;20209;-77
2023/12/24 09:20:15;;;;;;;1.73;0.90;;;9.40;1.00;;;;;;5028436;28;20215;-76
2023/12/24 09:22:41;;;;;;;1.20;1.00;;;9.30;1.00;;;;;;5030410;28;20726;-75
2023/12/24 09:25:06;;;;;;;1.33;1.00;;;9.30;1.00;;;;;;5024078;28;20269;-75
2023/12/24 09:27:32;;;;;;;1.50;0.90;;;9.30;1.00;;;;;;5025254;28;20202;-77
2023/12/24 09:30:03;;;;;;;1.30;1.00;;;9.30;1.00;;;;;;5025674;28;20186;-75
2023/12/24 09:32:30;;;;;;;3.97;1.00;;;9.30;1.00;;;;;;5022215;28;20248;-75
2023/12/24 09:34:55;;;;;;;1.90;1.17;;;9.30;1.00;;;;;;5024662;28;20428;-75
2023/12/24 09:37:21;;;;;;;1.67;1.00;;;9.30;1.00;;;;;;5010880;28;20445;-75
2023/12/24 09:39:46;;;;;;;1.20;1.00;;;9.30;1.00;;;;;;5024477;28;20695;-74
2023/12/24 09:42:12;;;;;;;2.50;1.00;;;9.30;1.00;;;;;;5029701;28;20182;-74
2023/12/24 09:44:37;;;;;;;1.23;0.90;;;9.30;1.00;;;;;;5029502;28;20186;-76
2023/12/24 09:47:03;;;;;;;2.10;0.90;;;9.20;1.00;;;;;;5029556;28;20228;-75
2023/12/24 09:49:28;;;;;;;2.13;1.20;;;9.30;1.00;;;;;;5028966;28;20190;-74
2023/12/24 09:51:56;;;;;;;1.40;1.10;;;9.30;1.00;;;;;;5030678;28;20223;-74
2023/12/24 09:54:23;;;;;;;1.00;0.90;;;9.30;1.00;;;;;;5029831;28;20652;-76
2023/12/24 09:56:48;;;;;;;1.83;1.07;;;9.30;1.00;;;;;;5027813;28;20439;-75
2023/12/24 09:59:14;;;;;;;1.83;1.10;;;9.30;1.00;;;;;;5024938;28;20461;-75
2023/12/24 10:01:45;;;;;;;1.30;0.93;;;9.30;1.00;;;;;;5030179;28;20182;-77
2023/12/24 10:04:12;;;;;;;1.30;1.00;;;9.30;1.00;;;;;;5030116;28;20533;-75
2023/12/24 10:06:58;;;;;;;4.73;1.87;;;9.30;1.00;;;;;;5022041;28;20421;-77
2023/12/24 10:09:49;;;;;;;2.50;1.10;;;9.30;1.00;;;;;;5025871;28;20436;-76
2023/12/24 10:12:14;;;;;;;1.13;1.00;;;9.30;1.00;;;;;;5030328;28;20435;-74
2023/12/24 10:14:40;;;;;;;1.33;1.23;;;9.30;1.00;;;;;;5024497;28;20425;-75
2023/12/24 10:17:06;;;;;;;3.00;1.20;;;9.40;1.00;;;;;;5025943;28;20234;-75
2023/12/24 10:19:33;;;;;;;1.30;1.17;;;9.40;1.00;;;;;;5027040;28;20209;-75
2023/12/24 10:22:08;;;;;;;1.20;1.00;;;9.40;1.00;;;;;;5029822;28;20427;-75
2023/12/24 10:24:38;;;;;;;1.50;1.13;;;9.50;1.00;;;;;;5028420;28;20420;-74
2023/12/24 10:27:11;;;;;;;1.10;0.90;;;9.50;1.00;;;;;;5029046;28;20783;-74
2023/12/24 10:29:41;;;;;;;1.60;1.20;;;9.50;1.00;;;;;;5027386;28;20926;-74
2023/12/24 10:32:10;;;;;;;1.30;1.03;;;9.50;1.00;;;;;;5010110;28;20532;-74
2023/12/24 10:34:37;;;;;;;2.50;1.00;;;9.50;1.00;;;;;;5029195;28;20428;-73
2023/12/24 10:37:18;;;;;;;2.43;1.77;;;9.50;1.00;;;;;;5029527;28;21064;-75
2023/12/24 10:39:45;;;;;;;1.30;1.00;;;9.50;1.00;;;;;;5028562;28;20464;-76
2023/12/24 10:42:10;;;;;;;1.63;1.17;;;9.50;1.00;;;;;;5028528;28;20425;-73
2023/12/24 10:44:36;;;;;;;2.67;2.10;;;9.60;1.00;;;;;;5011283;28;20466;-72
2023/12/24 10:47:03;;;;;;;2.97;2.00;;;9.60;1.00;;;;;;5026348;28;20507;-75
2023/12/24 10:49:29;;;;;;;1.10;0.90;;;9.60;1.00;;;;;;5028975;28;20428;-74
2023/12/24 10:51:56;;;;;;;3.43;1.40;;;9.60;1.00;;;;;;5028740;28;20930;-75
2023/12/24 10:54:22;;;;;;;1.70;1.10;;;9.50;1.00;;;;;;5021499;28;20309;-74
2023/12/24 10:57:05;;;;;;;1.60;0.87;;;9.70;1.00;;;;;;5005469;28;20439;-75
2023/12/24 11:00:02;;;;;;;3.70;1.17;;;9.70;1.00;;;;;;5028917;28;20784;-75
2023/12/24 11:02:28;;;;;;;1.10;1.00;;;9.70;1.00;;;;;;5022479;28;20490;-76
2023/12/24 11:04:57;;;;;;;2.10;1.23;;;9.70;1.00;;;;;;5024275;28;20425;-75
2023/12/24 11:07:34;;;;;;;1.33;1.00;;;9.70;1.00;;;;;;5028810;28;20440;-77
2023/12/24 11:10:01;;;;;;;1.20;1.03;;;9.70;1.00;;;;;;5029195;28;20420;-77
2023/12/24 11:12:37;;;;;;;1.00;0.90;;;9.70;1.00;;;;;;5028162;28;20417;-76
2023/12/24 11:15:04;;;;;;;1.37;1.10;;;9.70;1.00;;;;;;5028501;28;20424;-77
2023/12/24 11:17:38;;;;;;;2.80;1.00;;;9.70;1.00;;;;;;5027972;28;20541;-76
2023/12/24 11:20:26;;;;;;;1.40;1.00;;;9.70;1.00;;;;;;5007223;28;20476;-76
2023/12/24 11:23:03;;;;;;;1.37;0.90;;;9.70;1.00;;;;;;5020624;28;21057;-78
2023/12/24 11:25:42;;;;;;;1.20;1.00;;;9.60;1.00;;;;;;5028347;28;20435;-76
2023/12/24 11:28:12;;;;;;;1.33;1.10;;;9.70;1.00;;;;;;5028967;28;20455;-75
2023/12/24 11:30:50;;;;;;;1.50;1.10;;;10.00;1.00;;;;;;5027922;28;20435;-76
2023/12/24 11:33:31;;;;;;;1.50;1.00;;;10.20;1.00;;;;;;5029830;28;20428;-75
2023/12/24 11:36:00;;;;;;;1.93;1.00;;;9.90;1.00;;;;;;5026652;28;20426;-75
2023/12/24 11:38:35;;;;;;;1.20;1.07;;;9.80;1.00;;;;;;5028401;28;20523;-73
2023/12/24 11:41:04;;;;;;;1.97;1.13;;;9.80;1.00;;;;;;5028609;28;20424;-81
2023/12/24 11:43:30;;;;;;;2.27;1.80;;;9.70;1.00;;;;;;5023668;28;20490;-75
2023/12/24 11:45:56;;;;;;;1.40;1.10;;;9.70;1.00;;;;;;5027378;28;20543;-75
2023/12/24 11:48:29;;;;;;;1.30;1.03;;;9.70;1.00;;;;;;5009563;28;20201;-78
2023/12/24 11:51:13;;;;;;;1.20;1.10;;;9.70;1.00;;;;;;5027705;28;20487;-75
2023/12/24 11:53:42;;;;;;;1.43;1.03;;;9.80;1.00;;;;;;5028791;28;20428;-77
2023/12/24 11:56:16;;;;;;;1.40;1.20;;;9.80;1.00;;;;;;5028809;28;20425;-74
2023/12/24 11:58:48;;;;;;;1.43;1.17;;;9.90;1.00;;;;;;5020422;28;20455;-73
2023/12/24 12:01:14;;;;;;;1.53;1.20;;;9.90;1.00;;;;;;5025263;28;20437;-76
2023/12/24 12:03:39;;;;;;;1.90;1.40;;;9.80;1.00;;;;;;5025449;28;20424;-76
2023/12/24 12:06:05;;;;;;;4.30;1.23;;;9.90;1.00;;;;;;5026192;28;20455;-73
2023/12/24 12:08:32;;;;;;;1.30;1.10;;;9.90;1.00;;;;;;5026025;28;20199;-76
2023/12/24 12:10:58;;;;;;;3.53;1.63;;;10.00;1.00;;;;;;5025523;28;20520;-78
2023/12/24 12:13:24;;;;;;;1.60;1.10;;;10.00;1.00;;;;;;5026884;28;20424;-76
2023/12/24 12:15:50;;;;;;;1.40;1.23;;;10.00;1.00;;;;;;5009976;28;20435;-76
2023/12/24 12:18:16;;;;;;;1.50;1.37;;;10.10;1.00;;;;;;5027109;28;20232;-73
2023/12/24 12:20:45;;;;;;;3.70;1.43;;;10.00;1.00;;;;;;5027313;28;20206;-76
2023/12/24 12:23:16;;;;;;;4.70;1.20;;;10.00;1.00;;;;;;5027849;28;20934;-74
2023/12/24 12:25:41;;;;;;;1.43;1.10;;;10.10;1.00;;;;;;5026855;28;20413;-75
2023/12/24 12:28:07;;;;;;;1.70;1.10;;;10.20;1.00;;;;;;5029064;28;20460;-75
2023/12/24 12:30:32;;;;;;;2.33;1.10;;;10.20;1.00;;;;;;5026858;28;20190;-75
2023/12/24 12:32:58;;;;;;;1.80;1.00;;;10.20;1.00;;;;;;5028204;28;20182;-75
2023/12/24 12:35:23;;;;;;;1.30;1.00;;;10.20;1.00;;;;;;5010304;28;20197;-79
2023/12/24 12:37:49;;;;;;;1.37;1.10;;;10.20;1.00;;;;;;5028293;28;20241;-75
2023/12/24 12:40:14;;;;;;;1.40;1.13;;;10.50;1.00;;;;;;5028598;28;20232;-75
2023/12/24 12:42:40;;;;;;;1.40;1.00;;;10.30;1.00;;;;;;5027582;28;20190;-75
2023/12/24 12:45:08;;;;;;;1.10;0.80;;;10.30;1.00;;;;;;5020260;28;20186;-74
2023/12/24 12:47:34;;;;;;;1.30;1.00;;;9.60;1.00;;;;;;5026749;28;20201;-77
2023/12/24 12:49:59;;;;;;;1.20;1.10;;;10.30;1.00;;;;;;5026199;28;20436;-76
2023/12/24 12:52:25;;;;;;;1.37;1.13;;;10.30;1.00;;;;;;5030768;28;20200;-74
2023/12/24 12:55:03;;;;;;;1.20;1.00;;;10.40;1.00;;;;;;5024855;28;20598;-75
2023/12/24 12:57:30;;;;;;;1.10;1.00;;;10.40;1.00;;;;;;5025982;28;20211;-71